Time;durP1;ratioP1;P1;durP2;ratioP2;P2;SDS_P1;SDS_P2;PMS_P1;PMS_P2;Temp;Humidity;BMP_temperature;BMP_pressure;BME280_temperature;BME280_humidity;BME280_pressure;Samples;Min_cycle;Max_cycle;Signal;HPM_P1;HPM_P2
2021/12/23 00:00:32;;;;;;;8.20;4.05;;;;;;;;;;5088711;28;20087;-69
2021/12/23 00:02:58;;;;;;;8.15;4.18;;;;;;;;;;5088956;28;20135;-69
2021/12/23 00:05:24;;;;;;;6.72;4.07;;;;;;;;;;5089047;28;20036;-69
2021/12/23 00:07:50;;;;;;;6.93;4.22;;;;;;;;;;5088975;28;20430;-69
2021/12/23 00:10:16;;;;;;;7.35;4.07;;;;;;;;;;5087218;28;20040;-69
2021/12/23 00:12:44;;;;;;;7.10;4.25;;;;;;;;;;5089033;28;20063;-69
2021/12/23 00:15:28;;;;;;;7.25;4.00;;;;;;;;;;5089245;28;20066;-69
2021/12/23 00:25:34;;;;;;;6.45;3.92;;;;;;;;;;5088854;28;20074;-70
2021/12/23 00:28:00;;;;;;;7.38;3.85;;;;;;;;;;5088868;28;20047;-70
2021/12/23 00:30:26;;;;;;;6.47;3.85;;;;;;;;;;5089102;28;20419;-70
2021/12/23 00:32:54;;;;;;;7.35;3.90;;;;;;;;;;5088366;28;20051;-70
2021/12/23 00:35:21;;;;;;;6.72;4.18;;;;;;;;;;5089011;28;20044;-70
2021/12/23 00:37:49;;;;;;;8.30;3.90;;;;;;;;;;5088723;28;20123;-70
2021/12/23 00:40:17;;;;;;;10.48;4.25;;;;;;;;;;5088580;28;20056;-70
2021/12/23 00:42:43;;;;;;;9.40;3.72;;;;;;;;;;5088848;28;20056;-70
2021/12/23 00:45:09;;;;;;;12.07;4.00;;;;;;;;;;5092061;28;20187;-71
2021/12/23 00:47:35;;;;;;;6.93;3.90;;;;;;;;;;5091868;28;20043;-71
2021/12/23 00:50:02;;;;;;;6.35;3.80;;;;;;;;;;5091881;28;20431;-69
2021/12/23 00:52:32;;;;;;;9.60;4.07;;;;;;;;;;5090127;28;20043;-70
2021/12/23 00:54:59;;;;;;;8.18;4.03;;;;;;;;;;5091704;28;21374;-70
2021/12/23 00:57:29;;;;;;;7.50;3.88;;;;;;;;;;5091358;28;20048;-69
2021/12/23 00:59:56;;;;;;;7.72;3.55;;;;;;;;;;5091624;28;20043;-70
2021/12/23 01:02:26;;;;;;;7.07;3.65;;;;;;;;;;5091577;28;20058;-70
2021/12/23 01:04:52;;;;;;;9.65;4.05;;;;;;;;;;5091468;28;20083;-70
2021/12/23 01:07:18;;;;;;;6.70;3.95;;;;;;;;;;5091379;28;20052;-70
2021/12/23 01:09:44;;;;;;;7.10;3.63;;;;;;;;;;5092224;28;20494;-70
2021/12/23 01:12:12;;;;;;;7.78;3.40;;;;;;;;;;5092044;28;20182;-70
2021/12/23 01:14:57;;;;;;;10.88;3.67;;;;;;;;;;5091298;28;20064;-71
2021/12/23 01:19:55;;;;;;;9.63;3.75;;;;;;;;;;5092047;28;20040;-71
2021/12/23 01:22:21;;;;;;;6.68;3.50;;;;;;;;;;5091686;28;20164;-71
2021/12/23 01:24:47;;;;;;;6.60;3.03;;;;;;;;;;5091434;28;20583;-71
2021/12/23 01:27:14;;;;;;;6.13;3.40;;;;;;;;;;5091420;28;20129;-71
2021/12/23 01:29:40;;;;;;;5.50;3.25;;;;;;;;;;5091635;28;20040;-71
2021/12/23 01:32:07;;;;;;;8.50;3.60;;;;;;;;;;5091379;28;20468;-71
2021/12/23 01:34:33;;;;;;;5.43;3.28;;;;;;;;;;5091676;28;20424;-71
2021/12/23 01:37:03;;;;;;;6.38;3.00;;;;;;;;;;5091627;28;20478;-71
2021/12/23 01:39:29;;;;;;;7.25;3.55;;;;;;;;;;5090697;28;20040;-71
2021/12/23 01:41:56;;;;;;;6.63;3.45;;;;;;;;;;5090351;28;20052;-71
2021/12/23 01:44:22;;;;;;;5.68;3.00;;;;;;;;;;5091341;28;20116;-71
2021/12/23 01:46:48;;;;;;;5.80;3.53;;;;;;;;;;5091360;28;20048;-71
2021/12/23 01:49:15;;;;;;;6.75;3.35;;;;;;;;;;5090945;28;20066;-71
2021/12/23 01:51:41;;;;;;;6.82;3.70;;;;;;;;;;5090740;28;20391;-71
2021/12/23 01:54:07;;;;;;;7.65;3.42;;;;;;;;;;5091410;28;20076;-71
2021/12/23 01:56:33;;;;;;;5.47;3.15;;;;;;;;;;5090334;28;20065;-71
2021/12/23 01:59:00;;;;;;;6.47;3.53;;;;;;;;;;5090521;28;20052;-71
2021/12/23 02:01:26;;;;;;;4.90;3.05;;;;;;;;;;5090772;28;20170;-71
2021/12/23 02:03:52;;;;;;;6.53;3.25;;;;;;;;;;5090790;28;20079;-71
2021/12/23 02:06:18;;;;;;;5.55;3.38;;;;;;;;;;5090958;28;20048;-71
2021/12/23 02:08:45;;;;;;;6.97;3.35;;;;;;;;;;5089744;28;20040;-71
2021/12/23 02:11:11;;;;;;;5.40;2.83;;;;;;;;;;5090328;28;20048;-71
2021/12/23 02:13:38;;;;;;;6.03;3.15;;;;;;;;;;5090621;28;20118;-71
2021/12/23 02:16:05;;;;;;;8.80;3.22;;;;;;;;;;5089487;28;20553;-71
2021/12/23 02:18:31;;;;;;;5.68;3.47;;;;;;;;;;5090337;28;20056;-72
2021/12/23 02:20:58;;;;;;;6.13;3.20;;;;;;;;;;5089932;28;20052;-72
2021/12/23 02:23:24;;;;;;;5.40;3.20;;;;;;;;;;5090080;28;20131;-71
2021/12/23 02:25:51;;;;;;;5.72;3.17;;;;;;;;;;5090031;28;20075;-71
2021/12/23 02:28:18;;;;;;;6.28;3.60;;;;;;;;;;5089570;28;20065;-71
2021/12/23 02:30:45;;;;;;;7.13;3.13;;;;;;;;;;5089743;28;20051;-71
2021/12/23 02:33:11;;;;;;;4.05;2.70;;;;;;;;;;5089576;28;20479;-71
2021/12/23 02:35:37;;;;;;;9.18;3.33;;;;;;;;;;5089743;28;20414;-71
2021/12/23 02:38:04;;;;;;;5.40;3.17;;;;;;;;;;5089751;28;20050;-72
2021/12/23 02:40:32;;;;;;;5.65;2.85;;;;;;;;;;5089351;28;20062;-71
2021/12/23 02:43:07;;;;;;;6.25;3.15;;;;;;;;;;5089486;28;20044;-71
2021/12/23 02:45:33;;;;;;;4.88;2.78;;;;;;;;;;5089354;28;20670;-71
2021/12/23 02:47:59;;;;;;;7.00;3.05;;;;;;;;;;5088571;28;20135;-71
2021/12/23 02:50:25;;;;;;;5.30;2.88;;;;;;;;;;5090135;28;20048;-71
2021/12/23 02:52:51;;;;;;;7.13;2.88;;;;;;;;;;5089842;28;20635;-71
2021/12/23 02:55:21;;;;;;;5.03;2.67;;;;;;;;;;5089387;28;20036;-71
2021/12/23 02:57:47;;;;;;;5.85;2.63;;;;;;;;;;5089872;28;20104;-71
2021/12/23 03:00:13;;;;;;;5.15;3.10;;;;;;;;;;5089536;28;20470;-71
2021/12/23 03:02:40;;;;;;;5.00;3.10;;;;;;;;;;5089969;28;20050;-71
2021/12/23 03:05:07;;;;;;;6.07;3.20;;;;;;;;;;5090056;28;20507;-71
2021/12/23 03:07:33;;;;;;;5.97;3.10;;;;;;;;;;5088730;28;20048;-71
2021/12/23 03:09:59;;;;;;;6.40;3.22;;;;;;;;;;5089270;28;20051;-70
2021/12/23 03:12:25;;;;;;;5.03;2.90;;;;;;;;;;5089582;28;20536;-71
2021/12/23 03:14:51;;;;;;;8.63;3.15;;;;;;;;;;5089491;28;20048;-71
2021/12/23 03:17:17;;;;;;;5.95;2.95;;;;;;;;;;5089632;28;20052;-71
2021/12/23 03:19:43;;;;;;;3.88;2.28;;;;;;;;;;5089282;28;20486;-71
2021/12/23 03:22:09;;;;;;;6.07;3.60;;;;;;;;;;5089468;28;20048;-71
2021/12/23 03:24:35;;;;;;;7.97;3.03;;;;;;;;;;5089431;28;20051;-71
2021/12/23 03:27:01;;;;;;;5.85;2.78;;;;;;;;;;5088544;28;20397;-71
2021/12/23 03:29:28;;;;;;;4.43;2.90;;;;;;;;;;5089212;28;20040;-71
2021/12/23 03:31:54;;;;;;;4.65;2.85;;;;;;;;;;5088996;28;20105;-71
2021/12/23 03:34:20;;;;;;;6.55;2.88;;;;;;;;;;5088553;28;20055;-71
2021/12/23 03:36:46;;;;;;;7.40;3.10;;;;;;;;;;5088589;28;20044;-71
2021/12/23 03:39:12;;;;;;;4.35;2.80;;;;;;;;;;5088582;28;20070;-71
2021/12/23 03:41:38;;;;;;;5.97;3.65;;;;;;;;;;5088569;28;20421;-71
2021/12/23 03:44:04;;;;;;;6.18;2.83;;;;;;;;;;5088264;28;20047;-70
2021/12/23 03:46:30;;;;;;;5.25;2.83;;;;;;;;;;5088741;28;20048;-70
2021/12/23 03:48:56;;;;;;;10.43;3.13;;;;;;;;;;5088789;28;20048;-71
2021/12/23 03:51:22;;;;;;;4.85;2.83;;;;;;;;;;5088625;28;20040;-70
2021/12/23 03:53:48;;;;;;;12.15;3.03;;;;;;;;;;5088459;28;20516;-71
2021/12/23 03:56:15;;;;;;;10.55;3.00;;;;;;;;;;5088665;28;20044;-70
2021/12/23 03:58:41;;;;;;;16.70;3.78;;;;;;;;;;5087793;28;20054;-69
2021/12/23 04:01:07;;;;;;;13.77;3.00;;;;;;;;;;5088646;28;20087;-70
2021/12/23 04:03:33;;;;;;;9.98;3.00;;;;;;;;;;5088933;28;20101;-69
2021/12/23 04:05:59;;;;;;;12.93;3.05;;;;;;;;;;5088699;28;20508;-71
2021/12/23 04:08:25;;;;;;;5.95;3.40;;;;;;;;;;5088478;28;20127;-70
2021/12/23 04:10:51;;;;;;;4.75;2.80;;;;;;;;;;5088073;28;20123;-70
2021/12/23 04:13:17;;;;;;;9.82;3.50;;;;;;;;;;5088053;28;20051;-70
2021/12/23 04:15:43;;;;;;;6.68;2.70;;;;;;;;;;5088152;28;20044;-70
2021/12/23 04:18:09;;;;;;;4.60;2.40;;;;;;;;;;5089169;28;20043;-70
2021/12/23 04:20:46;;;;;;;9.25;2.80;;;;;;;;;;5092451;28;20531;-70
2021/12/23 04:23:12;;;;;;;7.72;2.85;;;;;;;;;;5092695;28;20087;-70
2021/12/23 04:25:38;;;;;;;5.93;2.80;;;;;;;;;;5091512;28;20578;-70
2021/12/23 04:28:05;;;;;;;6.60;2.80;;;;;;;;;;5092786;28;20097;-70
2021/12/23 04:30:31;;;;;;;7.68;2.90;;;;;;;;;;5092819;28;20565;-71
2021/12/23 04:32:57;;;;;;;5.13;2.83;;;;;;;;;;5092649;28;20489;-70
2021/12/23 04:35:23;;;;;;;6.43;2.80;;;;;;;;;;5092290;28;20104;-70
2021/12/23 04:37:49;;;;;;;7.28;3.17;;;;;;;;;;5092204;28;20047;-70
2021/12/23 04:40:16;;;;;;;5.75;2.88;;;;;;;;;;5092845;28;20040;-70
2021/12/23 04:42:42;;;;;;;8.15;3.03;;;;;;;;;;5092487;28;20052;-70
2021/12/23 04:45:09;;;;;;;19.65;3.58;;;;;;;;;;5092603;28;20455;-70
2021/12/23 04:47:35;;;;;;;5.45;2.72;;;;;;;;;;5091547;28;20048;-70
2021/12/23 04:50:02;;;;;;;9.25;3.28;;;;;;;;;;5092075;28;20040;-70
2021/12/23 04:52:28;;;;;;;6.45;3.08;;;;;;;;;;5092456;28;20067;-70
2021/12/23 04:54:54;;;;;;;5.18;2.63;;;;;;;;;;5091570;28;20138;-70
2021/12/23 04:57:20;;;;;;;7.00;2.60;;;;;;;;;;5092446;28;20044;-71
2021/12/23 04:59:46;;;;;;;3.85;2.65;;;;;;;;;;5091644;28;20051;-69
2021/12/23 05:02:12;;;;;;;5.50;2.83;;;;;;;;;;5092098;28;20052;-69
2021/12/23 05:04:39;;;;;;;5.10;2.83;;;;;;;;;;5092151;28;20127;-71
2021/12/23 05:07:05;;;;;;;5.28;2.58;;;;;;;;;;5092095;28;20052;-71
2021/12/23 05:09:31;;;;;;;8.77;3.40;;;;;;;;;;5091490;28;20052;-71
2021/12/23 05:11:57;;;;;;;6.13;2.75;;;;;;;;;;5092067;28;20079;-71
2021/12/23 05:14:23;;;;;;;5.10;2.80;;;;;;;;;;5092061;28;20084;-71
2021/12/23 05:16:49;;;;;;;5.70;2.45;;;;;;;;;;5091606;28;20040;-71
2021/12/23 05:19:15;;;;;;;8.57;2.80;;;;;;;;;;5091237;28;20101;-71
2021/12/23 05:21:41;;;;;;;5.95;2.70;;;;;;;;;;5091697;28;20047;-71
2021/12/23 05:24:07;;;;;;;5.57;2.80;;;;;;;;;;5091745;28;20089;-71
2021/12/23 05:26:33;;;;;;;5.20;2.90;;;;;;;;;;5091582;28;20098;-71
2021/12/23 05:28:59;;;;;;;5.38;2.58;;;;;;;;;;5091754;28;20048;-71
2021/12/23 05:31:25;;;;;;;4.45;2.40;;;;;;;;;;5090393;28;20048;-71
2021/12/23 05:33:51;;;;;;;5.00;2.75;;;;;;;;;;5090836;28;20051;-71
2021/12/23 05:36:17;;;;;;;5.10;2.80;;;;;;;;;;5091673;28;20052;-71
2021/12/23 05:38:43;;;;;;;3.72;2.30;;;;;;;;;;5091592;28;20089;-71
2021/12/23 05:41:09;;;;;;;4.65;2.60;;;;;;;;;;5091654;28;20044;-71
2021/12/23 05:43:35;;;;;;;5.30;2.63;;;;;;;;;;5091194;28;20451;-72
2021/12/23 05:46:02;;;;;;;4.68;2.35;;;;;;;;;;5090303;28;20331;-72
2021/12/23 05:48:28;;;;;;;4.40;2.45;;;;;;;;;;5089429;28;20061;-72
2021/12/23 05:50:54;;;;;;;4.30;2.60;;;;;;;;;;5090350;28;20036;-72
2021/12/23 05:53:20;;;;;;;4.18;2.50;;;;;;;;;;5090548;28;20434;-72
2021/12/23 05:55:46;;;;;;;3.42;2.33;;;;;;;;;;5090520;28;20040;-72
2021/12/23 05:58:12;;;;;;;6.60;2.75;;;;;;;;;;5091352;28;20139;-72
2021/12/23 06:00:38;;;;;;;4.90;2.70;;;;;;;;;;5090925;28;20127;-72
2021/12/23 06:03:04;;;;;;;7.75;2.72;;;;;;;;;;5090926;28;20044;-72
2021/12/23 06:05:30;;;;;;;4.18;2.30;;;;;;;;;;5089677;28;20410;-72
2021/12/23 06:07:56;;;;;;;3.97;2.45;;;;;;;;;;5089403;28;20135;-72
2021/12/23 06:10:22;;;;;;;5.68;2.78;;;;;;;;;;5090225;28;20081;-72
2021/12/23 06:12:49;;;;;;;4.40;2.45;;;;;;;;;;5090100;28;20052;-72
2021/12/23 06:15:15;;;;;;;5.65;2.88;;;;;;;;;;5090080;28;20483;-72
2021/12/23 06:17:41;;;;;;;3.83;2.47;;;;;;;;;;5090033;28;20078;-72
2021/12/23 06:20:09;;;;;;;3.70;2.17;;;;;;;;;;5090194;28;20092;-72
2021/12/23 06:22:36;;;;;;;4.80;2.50;;;;;;;;;;5088470;28;20052;-72
2021/12/23 06:25:04;;;;;;;4.78;2.72;;;;;;;;;;5090140;28;20086;-73
2021/12/23 06:27:30;;;;;;;3.90;2.22;;;;;;;;;;5090679;28;20040;-73
2021/12/23 06:29:56;;;;;;;4.03;2.17;;;;;;;;;;5090537;28;20044;-72
2021/12/23 06:32:22;;;;;;;7.47;2.40;;;;;;;;;;5090435;28;20036;-72
2021/12/23 06:34:48;;;;;;;17.92;3.45;;;;;;;;;;5088453;28;20050;-71
2021/12/23 06:37:14;;;;;;;12.05;3.63;;;;;;;;;;5090365;28;20417;-71
2021/12/23 06:39:40;;;;;;;7.03;3.03;;;;;;;;;;5090304;28;20125;-71
2021/12/23 06:42:07;;;;;;;5.97;2.70;;;;;;;;;;5090040;28;20486;-70
2021/12/23 06:44:33;;;;;;;6.10;2.78;;;;;;;;;;5089975;28;20051;-69
2021/12/23 06:46:59;;;;;;;6.10;2.72;;;;;;;;;;5090431;28;20040;-70
2021/12/23 06:49:26;;;;;;;6.10;2.80;;;;;;;;;;5090333;28;20040;-69
2021/12/23 06:51:53;;;;;;;4.68;2.40;;;;;;;;;;5090072;28;20074;-70
2021/12/23 06:54:19;;;;;;;17.90;2.53;;;;;;;;;;5089493;28;20433;-70
2021/12/23 06:56:46;;;;;;;5.57;2.85;;;;;;;;;;5088826;28;20547;-70
2021/12/23 06:59:15;;;;;;;4.18;2.35;;;;;;;;;;5089742;28;20036;-71
2021/12/23 07:01:41;;;;;;;4.53;2.40;;;;;;;;;;5089447;28;20052;-71
2021/12/23 07:04:19;;;;;;;4.32;2.55;;;;;;;;;;5089493;28;20155;-71
2021/12/23 07:06:56;;;;;;;8.10;2.90;;;;;;;;;;5087633;28;20163;-71
2021/12/23 07:09:22;;;;;;;7.05;2.50;;;;;;;;;;5089155;28;20056;-72
2021/12/23 07:11:49;;;;;;;5.15;2.50;;;;;;;;;;5089231;28;20462;-70
2021/12/23 07:14:15;;;;;;;7.30;2.85;;;;;;;;;;5089010;28;20080;-71
2021/12/23 07:16:42;;;;;;;3.88;2.75;;;;;;;;;;5088499;28;20055;-70
2021/12/23 07:19:08;;;;;;;4.90;2.63;;;;;;;;;;5089150;28;20044;-70
2021/12/23 07:21:34;;;;;;;5.78;2.78;;;;;;;;;;5088835;28;20128;-70
2021/12/23 07:24:00;;;;;;;4.53;2.65;;;;;;;;;;5088599;28;20573;-70
2021/12/23 07:26:26;;;;;;;5.00;2.65;;;;;;;;;;5089092;28;20063;-70
2021/12/23 07:28:52;;;;;;;5.80;2.97;;;;;;;;;;5088863;28;20083;-70
2021/12/23 07:31:19;;;;;;;4.90;2.83;;;;;;;;;;5088746;28;20081;-70
2021/12/23 07:33:45;;;;;;;6.50;2.60;;;;;;;;;;5088188;28;20048;-70
2021/12/23 07:36:11;;;;;;;4.95;2.65;;;;;;;;;;5088884;28;20040;-70
2021/12/23 07:38:37;;;;;;;3.53;2.50;;;;;;;;;;5088474;28;20371;-70
2021/12/23 07:41:03;;;;;;;4.38;2.80;;;;;;;;;;5088881;28;20036;-70
2021/12/23 07:46:01;;;;;;;6.15;2.60;;;;;;;;;;5089017;28;20096;-70
2021/12/23 07:48:27;;;;;;;6.80;2.70;;;;;;;;;;5087953;28;20039;-71
2021/12/23 07:50:54;;;;;;;5.60;2.88;;;;;;;;;;5088415;28;20482;-71
2021/12/23 07:53:21;;;;;;;10.02;3.30;;;;;;;;;;5089720;28;20044;-71
2021/12/23 07:55:47;;;;;;;6.93;2.85;;;;;;;;;;5092706;28;20135;-71
2021/12/23 07:58:13;;;;;;;7.95;3.28;;;;;;;;;;5093061;28;20047;-71
2021/12/23 08:00:39;;;;;;;6.05;3.20;;;;;;;;;;5092245;28;20047;-71
2021/12/23 08:03:05;;;;;;;10.88;3.30;;;;;;;;;;5092681;28;20047;-71
2021/12/23 08:05:31;;;;;;;5.88;2.97;;;;;;;;;;5093106;28;20112;-71
2021/12/23 08:07:58;;;;;;;5.78;3.10;;;;;;;;;;5092767;28;20040;-72
2021/12/23 08:10:24;;;;;;;8.13;3.20;;;;;;;;;;5092004;28;20047;-72
2021/12/23 08:12:50;;;;;;;6.10;3.05;;;;;;;;;;5092480;28;20498;-72
2021/12/23 08:15:16;;;;;;;13.00;3.10;;;;;;;;;;5091189;28;20563;-72
2021/12/23 08:17:42;;;;;;;5.07;3.17;;;;;;;;;;5092443;28;20093;-71
2021/12/23 08:20:08;;;;;;;6.75;3.30;;;;;;;;;;5091577;28;20040;-71
2021/12/23 08:22:35;;;;;;;5.90;2.97;;;;;;;;;;5091604;28;20059;-71
2021/12/23 08:25:01;;;;;;;5.50;3.00;;;;;;;;;;5092737;28;20044;-71
2021/12/23 08:27:29;;;;;;;9.60;3.38;;;;;;;;;;5092301;28;20047;-71
2021/12/23 08:29:55;;;;;;;7.78;3.22;;;;;;;;;;5091490;28;20671;-70
2021/12/23 08:32:21;;;;;;;5.90;3.38;;;;;;;;;;5091922;28;20047;-70
2021/12/23 08:34:48;;;;;;;3.92;3.03;;;;;;;;;;5092141;28;20444;-71
2021/12/23 08:37:14;;;;;;;6.22;2.72;;;;;;;;;;5092071;28;20040;-71
2021/12/23 08:39:41;;;;;;;6.00;3.08;;;;;;;;;;5091924;28;20047;-70
2021/12/23 08:42:07;;;;;;;5.82;3.15;;;;;;;;;;5091883;28;20052;-71
2021/12/23 08:44:34;;;;;;;4.10;2.60;;;;;;;;;;5092087;28;20055;-71
2021/12/23 08:47:00;;;;;;;6.25;3.30;;;;;;;;;;5091649;28;20079;-70
2021/12/23 08:49:26;;;;;;;5.53;3.63;;;;;;;;;;5091524;28;20073;-70
2021/12/23 08:51:53;;;;;;;5.85;3.10;;;;;;;;;;5092198;28;20165;-71
2021/12/23 08:54:19;;;;;;;4.03;2.88;;;;;;;;;;5091570;28;20071;-70
2021/12/23 08:56:45;;;;;;;4.40;2.90;;;;;;;;;;5091088;28;20036;-71
2021/12/23 08:59:12;;;;;;;4.63;2.92;;;;;;;;;;5091680;28;20040;-70
2021/12/23 09:01:40;;;;;;;6.45;3.00;;;;;;;;;;5091702;28;20069;-70
2021/12/23 09:04:06;;;;;;;5.97;3.22;;;;;;;;;;5091627;28;20148;-71
2021/12/23 09:06:32;;;;;;;4.38;2.92;;;;;;;;;;5091628;28;20467;-69
2021/12/23 09:08:58;;;;;;;10.82;3.45;;;;;;;;;;5091806;28;20044;-71
2021/12/23 09:11:25;;;;;;;5.65;3.10;;;;;;;;;;5090937;28;20052;-71
2021/12/23 09:13:51;;;;;;;5.57;2.92;;;;;;;;;;5091570;28;20545;-71
2021/12/23 09:16:18;;;;;;;7.50;3.45;;;;;;;;;;5091647;28;20116;-70
2021/12/23 09:18:44;;;;;;;6.60;3.47;;;;;;;;;;5091375;28;20044;-69
2021/12/23 09:21:12;;;;;;;4.53;3.20;;;;;;;;;;5091384;28;20048;-69
2021/12/23 09:23:38;;;;;;;5.00;3.20;;;;;;;;;;5091216;28;20105;-69
2021/12/23 09:26:09;;;;;;;5.45;3.33;;;;;;;;;;5091260;28;20553;-69
2021/12/23 09:33:52;;;;;;;5.53;3.13;;;;;;;;;;5091139;28;20091;-69
2021/12/23 09:36:18;;;;;;;5.55;3.97;;;;;;;;;;5089290;28;20135;-69
2021/12/23 09:38:45;;;;;;;4.38;3.00;;;;;;;;;;5091459;28;20089;-69
2021/12/23 09:41:15;;;;;;;4.20;2.95;;;;;;;;;;5090810;28;20127;-68
2021/12/23 09:43:41;;;;;;;5.40;3.50;;;;;;;;;;5090846;28;20131;-68
2021/12/23 09:46:09;;;;;;;4.90;3.13;;;;;;;;;;5090743;28;20490;-69
2021/12/23 09:48:36;;;;;;;6.10;3.72;;;;;;;;;;5090623;28;20134;-69
2021/12/23 09:51:05;;;;;;;6.18;3.90;;;;;;;;;;5090430;28;20048;-69
2021/12/23 09:53:32;;;;;;;5.55;3.17;;;;;;;;;;5090799;28;20105;-69
2021/12/23 09:55:58;;;;;;;5.40;4.10;;;;;;;;;;5090650;28;20232;-70
2021/12/23 09:58:25;;;;;;;5.68;4.05;;;;;;;;;;5090664;28;20418;-70
2021/12/23 10:00:51;;;;;;;4.22;3.30;;;;;;;;;;5089916;28;20439;-70
2021/12/23 10:03:21;;;;;;;5.18;3.70;;;;;;;;;;5090360;28;20127;-70
2021/12/23 10:05:47;;;;;;;4.95;3.50;;;;;;;;;;5090568;28;20036;-70
2021/12/23 10:08:14;;;;;;;5.43;3.60;;;;;;;;;;5090471;28;20051;-70
2021/12/23 10:10:55;;;;;;;5.93;3.83;;;;;;;;;;5089546;28;20048;-70
2021/12/23 10:37:18;;;;;;;5.18;4.15;;;;;;;;;;5090112;28;20139;-71
2021/12/23 10:39:46;;;;;;;6.70;4.40;;;;;;;;;;5088034;28;20051;-71
2021/12/23 10:42:14;;;;;;;5.95;4.60;;;;;;;;;;5090078;28;20167;-70
2021/12/23 10:44:47;;;;;;;6.38;4.45;;;;;;;;;;5090526;28;20043;-71
2021/12/23 10:47:29;;;;;;;6.05;4.43;;;;;;;;;;5090100;28;20460;-72
2021/12/23 10:49:59;;;;;;;5.78;4.13;;;;;;;;;;5084469;28;20529;-72
2021/12/23 10:52:30;;;;;;;7.28;4.25;;;;;;;;;;5089348;28;20044;-71
2021/12/23 11:00:12;;;;;;;7.47;4.65;;;;;;;;;;5087828;28;20072;-71
2021/12/23 11:02:40;;;;;;;6.32;4.80;;;;;;;;;;5088359;28;20110;-71
2021/12/23 11:05:14;;;;;;;7.00;5.10;;;;;;;;;;5087925;28;20044;-71
2021/12/23 11:35:48;;;;;;;8.95;6.43;;;;;;;;;;5086990;28;20047;-71
2021/12/23 11:38:23;;;;;;;8.05;6.10;;;;;;;;;;5085077;28;20048;-70
2021/12/23 11:40:53;;;;;;;7.93;5.72;;;;;;;;;;5086077;28;20051;-70
2021/12/23 11:43:31;;;;;;;7.55;5.55;;;;;;;;;;5086042;28;20452;-71
2021/12/23 11:45:57;;;;;;;7.10;5.75;;;;;;;;;;5086818;28;20075;-71
2021/12/23 11:48:23;;;;;;;8.18;6.10;;;;;;;;;;5087389;28;20568;-71
2021/12/23 11:51:06;;;;;;;8.60;6.03;;;;;;;;;;5087710;28;20132;-71
2021/12/23 11:53:33;;;;;;;8.40;5.53;;;;;;;;;;5086012;28;20096;-71
2021/12/23 11:56:00;;;;;;;7.00;5.40;;;;;;;;;;5086060;28;20044;-70
2021/12/23 11:58:26;;;;;;;8.15;5.80;;;;;;;;;;5086559;28;20040;-70
2021/12/23 12:01:05;;;;;;;8.32;5.82;;;;;;;;;;5087432;28;20040;-71
2021/12/23 12:03:31;;;;;;;;;;;;;;;;;;5087654;28;20056;-70
2021/12/23 12:06:14;;;;;;;7.78;6.05;;;;;;;;;;5086788;28;19985;-71
2021/12/23 12:08:40;;;;;;;7.22;5.75;;;;;;;;;;5085023;28;20051;-71
2021/12/23 12:11:17;;;;;;;8.07;6.18;;;;;;;;;;5087522;28;20044;-71
2021/12/23 12:13:43;;;;;;;9.13;6.13;;;;;;;;;;5087289;28;20500;-71
2021/12/23 12:16:39;;;;;;;7.32;5.72;;;;;;;;;;5087357;28;20044;-70
2021/12/23 12:19:10;;;;;;;7.68;6.00;;;;;;;;;;5081581;28;20513;-71
2021/12/23 12:21:36;;;;;;;7.93;6.15;;;;;;;;;;5087809;28;20501;-71
2021/12/23 12:24:07;;;;;;;8.30;6.53;;;;;;;;;;5087874;28;20071;-71
2021/12/23 12:26:35;;;;;;;7.85;5.97;;;;;;;;;;5086490;28;20039;-71
2021/12/23 12:29:04;;;;;;;7.43;5.75;;;;;;;;;;5086921;28;20044;-72
2021/12/23 12:31:38;;;;;;;7.13;5.63;;;;;;;;;;5085083;28;20494;-72
2021/12/23 12:34:09;;;;;;;7.85;5.88;;;;;;;;;;5087986;28;20039;-72
2021/12/23 12:36:46;;;;;;;8.05;6.18;;;;;;;;;;5085359;28;20044;-72
2021/12/23 12:39:17;;;;;;;7.35;5.75;;;;;;;;;;5089730;28;20134;-72
2021/12/23 12:41:43;;;;;;;8.10;6.03;;;;;;;;;;5091513;28;20040;-70
2021/12/23 12:44:18;;;;;;;8.07;6.32;;;;;;;;;;5090310;28;20052;-73
2021/12/23 12:47:04;;;;;;;9.30;6.30;;;;;;;;;;5090926;28;20460;-73
2021/12/23 12:49:37;;;;;;;8.70;5.82;;;;;;;;;;5090832;28;20123;-74
2021/12/23 12:52:07;;;;;;;8.30;6.03;;;;;;;;;;5089486;28;20036;-72
2021/12/23 12:54:33;;;;;;;7.70;6.18;;;;;;;;;;5090558;28;20040;-73
2021/12/23 12:57:02;;;;;;;8.05;6.13;;;;;;;;;;5090942;28;20051;-72
2021/12/23 12:59:31;;;;;;;8.18;6.60;;;;;;;;;;5089934;28;20046;-72
2021/12/23 13:01:59;;;;;;;8.77;6.03;;;;;;;;;;5090633;28;20054;-72
2021/12/23 13:04:25;;;;;;;7.78;6.18;;;;;;;;;;5090680;28;20504;-70
2021/12/23 13:06:55;;;;;;;7.45;6.13;;;;;;;;;;5090682;28;20130;-70
2021/12/23 13:09:22;;;;;;;9.82;6.03;;;;;;;;;;5089873;28;20040;-70
2021/12/23 13:11:49;;;;;;;8.18;6.38;;;;;;;;;;5088908;28;20467;-72
2021/12/23 13:14:20;;;;;;;7.80;6.38;;;;;;;;;;5088158;28;20516;-70
2021/12/23 13:17:04;;;;;;;7.88;6.03;;;;;;;;;;5089787;28;20072;-69
2021/12/23 13:19:33;;;;;;;9.25;6.60;;;;;;;;;;5089205;28;20036;-70
2021/12/23 13:22:00;;;;;;;8.00;6.47;;;;;;;;;;5090215;28;20047;-73
2021/12/23 13:24:27;;;;;;;8.57;6.45;;;;;;;;;;5090476;28;20727;-72
2021/12/23 13:26:55;;;;;;;8.35;6.57;;;;;;;;;;5088623;28;20089;-75
2021/12/23 13:29:26;;;;;;;8.85;6.53;;;;;;;;;;5089523;28;20411;-73
2021/12/23 13:31:53;;;;;;;8.55;6.65;;;;;;;;;;5088497;28;20047;-75
2021/12/23 13:34:24;;;;;;;9.02;6.55;;;;;;;;;;5089721;28;20079;-72
2021/12/23 13:36:54;;;;;;;9.07;6.53;;;;;;;;;;5089876;28;21034;-76
2021/12/23 13:39:26;;;;;;;7.80;5.85;;;;;;;;;;5088159;28;20123;-74
2021/12/23 13:41:53;;;;;;;8.27;6.55;;;;;;;;;;5090753;28;20473;-74
2021/12/23 13:44:21;;;;;;;7.40;6.15;;;;;;;;;;5089642;28;20486;-72
2021/12/23 13:46:56;;;;;;;8.77;6.65;;;;;;;;;;5090260;28;20051;-74
2021/12/23 13:49:32;;;;;;;10.35;6.80;;;;;;;;;;5092357;28;20044;-70
2021/12/23 13:51:58;;;;;;;8.10;6.38;;;;;;;;;;5092688;28;20048;-72
2021/12/23 13:54:24;;;;;;;9.90;6.55;;;;;;;;;;5089677;28;20040;-71
2021/12/23 13:56:51;;;;;;;11.00;7.18;;;;;;;;;;5088419;28;20121;-71
2021/12/23 13:59:22;;;;;;;7.97;6.70;;;;;;;;;;5089468;28;20044;-72
2021/12/23 14:01:51;;;;;;;10.48;7.30;;;;;;;;;;5089361;28;20131;-71
2021/12/23 14:04:30;;;;;;;8.27;6.65;;;;;;;;;;5089780;28;20063;-71
2021/12/23 14:06:57;;;;;;;10.68;6.68;;;;;;;;;;5089795;28;20051;-71
2021/12/23 14:09:30;;;;;;;8.40;6.50;;;;;;;;;;5089351;28;20043;-72
2021/12/23 14:11:56;;;;;;;8.23;6.78;;;;;;;;;;5089444;28;20169;-72
2021/12/23 14:14:22;;;;;;;8.82;6.82;;;;;;;;;;5088751;28;20044;-71
2021/12/23 14:16:48;;;;;;;7.60;6.38;;;;;;;;;;5086714;28;20122;-71
2021/12/23 14:19:23;;;;;;;8.27;6.47;;;;;;;;;;5089525;28;20169;-71
2021/12/23 14:24:34;;;;;;;8.25;6.28;;;;;;;;;;5089197;28;20135;-71
2021/12/23 14:27:00;;;;;;;8.80;6.45;;;;;;;;;;5089162;28;20043;-71
2021/12/23 14:29:31;;;;;;;8.70;6.35;;;;;;;;;;5088519;28;20093;-71
2021/12/23 14:31:57;;;;;;;7.80;6.32;;;;;;;;;;5087725;28;20063;-71
2021/12/23 14:34:25;;;;;;;7.10;5.93;;;;;;;;;;5089149;28;20044;-71
2021/12/23 14:36:54;;;;;;;9.02;6.50;;;;;;;;;;5088084;28;20055;-71
2021/12/23 14:39:28;;;;;;;7.40;6.10;;;;;;;;;;5087322;28;20044;-71
2021/12/23 14:41:55;;;;;;;8.15;6.05;;;;;;;;;;5089288;28;20058;-71
2021/12/23 14:44:27;;;;;;;8.85;6.57;;;;;;;;;;5088741;28;20409;-71
2021/12/23 14:47:07;;;;;;;9.35;6.22;;;;;;;;;;5086657;28;20544;-71
2021/12/23 14:52:17;;;;;;;7.57;6.05;;;;;;;;;;5088919;28;20052;-71
2021/12/23 14:54:48;;;;;;;7.72;6.45;;;;;;;;;;5086980;28;20063;-71
2021/12/23 14:57:16;;;;;;;9.50;6.70;;;;;;;;;;5088674;28;20128;-71
2021/12/23 14:59:49;;;;;;;9.85;7.00;;;;;;;;;;5087896;28;20043;-71
2021/12/23 15:02:17;;;;;;;8.52;6.32;;;;;;;;;;5087443;28;20112;-70
2021/12/23 15:05:16;;;;;;;8.73;6.70;;;;;;;;;;5088235;28;20097;-71
2021/12/23 15:07:50;;;;;;;8.07;6.43;;;;;;;;;;5075011;28;20391;-72
2021/12/23 15:10:35;;;;;;;7.95;6.68;;;;;;;;;;5086663;28;20486;-71
2021/12/23 15:13:12;;;;;;;9.38;7.03;;;;;;;;;;5088037;28;20514;-71
2021/12/23 15:15:38;;;;;;;8.82;6.75;;;;;;;;;;5088252;28;20051;-71
2021/12/23 15:18:14;;;;;;;7.93;6.35;;;;;;;;;;5087485;28;20055;-71
2021/12/23 15:20:46;;;;;;;7.97;6.68;;;;;;;;;;5087425;28;20568;-72
2021/12/23 15:23:12;;;;;;;8.50;6.32;;;;;;;;;;5086904;28;20135;-71
2021/12/23 15:25:40;;;;;;;8.20;6.63;;;;;;;;;;5087634;28;20052;-72
2021/12/23 15:28:07;;;;;;;7.82;5.95;;;;;;;;;;5086975;28;20050;-71
2021/12/23 15:30:34;;;;;;;8.68;6.60;;;;;;;;;;5087016;28;20406;-71
2021/12/23 15:33:07;;;;;;;9.00;7.10;;;;;;;;;;5087405;28;20121;-72
2021/12/23 15:35:35;;;;;;;8.95;6.75;;;;;;;;;;5087337;28;20128;-71
2021/12/23 15:38:03;;;;;;;9.90;6.88;;;;;;;;;;5085961;28;20056;-71
2021/12/23 15:40:33;;;;;;;7.80;6.78;;;;;;;;;;5086778;28;20044;-71
2021/12/23 15:43:01;;;;;;;8.05;6.45;;;;;;;;;;5086191;28;20118;-72
2021/12/23 15:45:28;;;;;;;8.10;6.60;;;;;;;;;;5086953;28;20442;-72
2021/12/23 15:47:56;;;;;;;8.55;7.13;;;;;;;;;;5086598;28;20129;-71
2021/12/23 15:50:23;;;;;;;9.82;7.10;;;;;;;;;;5086638;28;20075;-72
2021/12/23 15:52:50;;;;;;;8.90;6.75;;;;;;;;;;5086100;28;20040;-72
2021/12/23 15:55:16;;;;;;;8.48;7.35;;;;;;;;;;5087362;28;20036;-71
2021/12/23 15:57:43;;;;;;;10.18;7.03;;;;;;;;;;5086521;28;20089;-71
2021/12/23 16:00:09;;;;;;;9.25;7.03;;;;;;;;;;5087518;28;20048;-72
2021/12/23 16:02:37;;;;;;;10.13;7.65;;;;;;;;;;5086490;28;20048;-70
2021/12/23 16:07:33;;;;;;;9.93;7.97;;;;;;;;;;5087016;28;20039;-71
2021/12/23 16:10:00;;;;;;;8.75;7.13;;;;;;;;;;5087114;28;20129;-71